Time;durP1;ratioP1;P1;durP2;ratioP2;P2;SDS_P1;SDS_P2;PMS_P1;PMS_P2;Temp;Humidity;BMP_temperature;BMP_pressure;BME280_temperature;BME280_humidity;BME280_pressure;Samples;Min_cycle;Max_cycle;Signal;HPM_P1;HPM_P2
2023/03/12 00:01:38;;;;;;;2.65;1.63;;;1.00;99.90;;;;;;5021549;28;20387;-68
2023/03/12 00:04:04;;;;;;;2.45;1.52;;;0.80;99.90;;;;;;5041781;28;20118;-68
2023/03/12 00:06:29;;;;;;;3.70;1.60;;;1.00;99.90;;;;;;5052384;28;20037;-68
2023/03/12 00:08:55;;;;;;;2.60;1.25;;;0.50;99.90;;;;;;5052698;28;20054;-68
2023/03/12 00:11:21;;;;;;;1.85;1.30;;;0.80;99.90;;;;;;5050624;28;20484;-69
2023/03/12 00:13:51;;;;;;;1.30;0.73;;;0.90;99.90;;;;;;5028194;28;20110;-68
2023/03/12 00:16:17;;;;;;;1.88;1.17;;;0.80;99.90;;;;;;5063529;28;20116;-70
2023/03/12 00:18:46;;;;;;;1.83;0.93;;;0.70;99.90;;;;;;5034570;28;20472;-68
2023/03/12 00:21:11;;;;;;;1.30;1.00;;;0.70;99.90;;;;;;5017255;28;20068;-68
2023/03/12 00:23:37;;;;;;;2.03;1.05;;;0.70;99.90;;;;;;5025690;28;20060;-67
2023/03/12 00:26:09;;;;;;;2.35;1.40;;;1.00;99.90;;;;;;5028982;28;20126;-67
2023/03/12 00:28:35;;;;;;;2.40;1.52;;;0.80;99.90;;;;;;5032552;28;20105;-69
2023/03/12 00:31:02;;;;;;;3.33;1.90;;;0.80;99.90;;;;;;5041449;28;20037;-68
2023/03/12 00:33:28;;;;;;;3.25;2.10;;;0.70;99.90;;;;;;5068098;28;20511;-69
2023/03/12 00:35:55;;;;;;;3.22;2.00;;;0.70;99.90;;;;;;5048790;28;20139;-68
2023/03/12 00:38:21;;;;;;;5.30;2.42;;;0.90;99.90;;;;;;5032379;28;20078;-69
2023/03/12 00:40:47;;;;;;;5.47;2.80;;;0.80;99.90;;;;;;5035066;28;20456;-69
2023/03/12 00:43:13;;;;;;;4.65;2.58;;;1.20;99.90;;;;;;5070145;28;20033;-68
2023/03/12 00:45:39;;;;;;;7.05;2.90;;;1.20;99.90;;;;;;5052245;28;20108;-68
2023/03/12 00:48:05;;;;;;;5.00;2.50;;;0.60;99.90;;;;;;5032445;28;20119;-68
2023/03/12 00:50:31;;;;;;;6.47;2.50;;;0.70;99.90;;;;;;5050484;28;20043;-69
2023/03/12 00:52:56;;;;;;;4.60;2.63;;;0.70;99.90;;;;;;5017072;28;20053;-67
2023/03/12 00:55:22;;;;;;;4.18;2.10;;;1.20;99.90;;;;;;5033875;28;20567;-69
2023/03/12 00:57:48;;;;;;;3.45;2.10;;;1.30;99.90;;;;;;5037432;28;20526;-69
2023/03/12 01:00:14;;;;;;;2.67;1.92;;;1.20;99.90;;;;;;5019280;28;20041;-68
2023/03/12 01:02:40;;;;;;;2.95;2.00;;;1.20;99.90;;;;;;5050327;28;20041;-68
2023/03/12 01:05:07;;;;;;;4.13;1.88;;;0.80;99.90;;;;;;5056107;28;20080;-68
2023/03/12 01:07:34;;;;;;;2.92;1.60;;;1.10;99.90;;;;;;5026020;28;20492;-68
2023/03/12 01:10:00;;;;;;;5.95;1.90;;;0.70;99.90;;;;;;5036158;28;20078;-69
2023/03/12 01:12:26;;;;;;;3.03;1.70;;;1.20;99.90;;;;;;5048888;28;20044;-68
2023/03/12 01:14:52;;;;;;;2.83;1.85;;;1.00;99.90;;;;;;5055884;28;20392;-68
2023/03/12 01:17:17;;;;;;;3.22;2.03;;;1.30;99.90;;;;;;5072324;28;20106;-68
2023/03/12 01:19:43;;;;;;;2.72;1.80;;;1.10;99.90;;;;;;5043798;28;20080;-68
2023/03/12 01:22:09;;;;;;;3.75;1.80;;;0.70;99.90;;;;;;5025995;28;20116;-69
2023/03/12 01:24:35;;;;;;;2.80;1.90;;;1.20;99.90;;;;;;5073527;28;20471;-68
2023/03/12 01:27:00;;;;;;;4.10;1.92;;;0.70;99.90;;;;;;5045230;28;20044;-68
2023/03/12 01:29:26;;;;;;;3.43;1.77;;;1.20;99.90;;;;;;5055518;28;20059;-68
2023/03/12 01:31:51;;;;;;;2.53;1.60;;;1.10;99.90;;;;;;5050715;28;20290;-69
2023/03/12 01:34:17;;;;;;;2.63;1.52;;;0.70;99.90;;;;;;5035566;28;20292;-68
2023/03/12 01:36:45;;;;;;;2.03;1.38;;;0.70;99.90;;;;;;5037845;28;20077;-68
2023/03/12 01:39:10;;;;;;;1.73;1.33;;;0.60;99.90;;;;;;5073417;28;20129;-68
2023/03/12 01:41:36;;;;;;;2.25;1.55;;;0.60;99.90;;;;;;5051634;28;20044;-68
2023/03/12 01:44:04;;;;;;;2.08;1.42;;;0.70;99.90;;;;;;5048069;28;20040;-68
2023/03/12 01:46:33;;;;;;;4.05;1.75;;;1.30;99.90;;;;;;5071304;28;20044;-68
2023/03/12 01:49:25;;;;;;;2.15;1.58;;;1.30;99.90;;;;;;5035127;28;20044;-68
2023/03/12 01:51:57;;;;;;;3.45;1.88;;;1.40;99.90;;;;;;5042900;28;20076;-67
2023/03/12 01:54:34;;;;;;;2.55;1.88;;;1.20;99.90;;;;;;5055115;28;20055;-69
2023/03/12 01:57:02;;;;;;;3.03;1.70;;;1.00;99.90;;;;;;5071669;28;20044;-69
2023/03/12 01:59:32;;;;;;;2.88;1.80;;;1.40;99.90;;;;;;5069044;28;20128;-68
2023/03/12 02:01:58;;;;;;;3.33;2.50;;;1.40;99.90;;;;;;5048236;28;20127;-68
2023/03/12 02:04:26;;;;;;;4.30;2.47;;;1.10;99.90;;;;;;5038136;28;20189;-69
2023/03/12 02:07:01;;;;;;;4.95;2.88;;;1.50;99.90;;;;;;5052938;28;20121;-68
2023/03/12 02:09:27;;;;;;;3.83;3.00;;;1.20;99.90;;;;;;5072708;28;20083;-68
2023/03/12 02:11:53;;;;;;;6.15;3.00;;;1.90;99.90;;;;;;5041492;28;20053;-68
2023/03/12 02:14:19;;;;;;;5.70;2.63;;;1.40;99.90;;;;;;5052294;28;20052;-68
2023/03/12 02:16:45;;;;;;;7.45;3.17;;;1.40;99.90;;;;;;5044109;28;20488;-68
2023/03/12 02:19:29;;;;;;;4.05;2.97;;;1.80;99.90;;;;;;5037121;28;20048;-68
2023/03/12 02:21:55;;;;;;;5.32;2.80;;;2.10;99.90;;;;;;5066510;28;20511;-68
2023/03/12 02:24:36;;;;;;;4.90;3.05;;;2.10;99.90;;;;;;5070983;28;20129;-68
2023/03/12 02:27:03;;;;;;;4.00;2.80;;;1.70;99.90;;;;;;5069449;28;20387;-68
2023/03/12 02:29:30;;;;;;;4.47;2.80;;;2.20;99.90;;;;;;5051179;28;20052;-68
2023/03/12 02:31:59;;;;;;;3.67;2.40;;;2.10;99.90;;;;;;5065948;28;20332;-69
2023/03/12 02:34:24;;;;;;;4.30;2.20;;;1.80;99.90;;;;;;5056727;28;20047;-69
2023/03/12 02:36:50;;;;;;;2.97;2.40;;;1.70;99.90;;;;;;5070889;28;20570;-69
2023/03/12 02:39:16;;;;;;;4.95;2.60;;;1.70;99.90;;;;;;5070309;28;20040;-69
2023/03/12 02:41:52;;;;;;;3.10;1.75;;;2.20;99.90;;;;;;5077216;28;20115;-69
2023/03/12 02:44:28;;;;;;;3.88;2.10;;;2.20;99.90;;;;;;5054608;28;20100;-69
2023/03/12 02:46:56;;;;;;;3.03;2.22;;;2.30;99.90;;;;;;5050549;28;20036;-69
2023/03/12 02:49:24;;;;;;;4.15;2.55;;;1.80;99.90;;;;;;5052321;28;20052;-67
2023/03/12 02:51:50;;;;;;;3.47;2.30;;;2.10;99.90;;;;;;5056602;28;20091;-67
2023/03/12 02:54:18;;;;;;;3.60;2.30;;;1.90;99.90;;;;;;5064942;28;20051;-68
2023/03/12 02:56:44;;;;;;;3.28;2.42;;;1.90;99.90;;;;;;5053165;28;20045;-67
2023/03/12 02:59:12;;;;;;;2.63;2.03;;;1.90;99.90;;;;;;5063265;28;20043;-67
2023/03/12 03:01:38;;;;;;;3.00;2.33;;;2.40;99.90;;;;;;5058131;28;20083;-67
2023/03/12 03:04:05;;;;;;;4.43;2.47;;;2.50;99.90;;;;;;5053728;28;20122;-67
2023/03/12 03:06:31;;;;;;;4.50;2.72;;;2.00;99.90;;;;;;5069714;28;20044;-67
2023/03/12 03:08:57;;;;;;;4.10;2.53;;;2.10;99.90;;;;;;5065437;28;20045;-67
2023/03/12 03:11:24;;;;;;;4.20;2.70;;;2.40;99.90;;;;;;5045925;28;20041;-68
2023/03/12 03:13:50;;;;;;;4.63;2.63;;;2.30;99.90;;;;;;5053076;28;20052;-67
2023/03/12 03:16:16;;;;;;;3.10;2.20;;;2.10;99.90;;;;;;5050359;28;20159;-67
2023/03/12 03:18:42;;;;;;;4.53;2.53;;;2.30;99.90;;;;;;5065205;28;20189;-67
2023/03/12 03:21:09;;;;;;;3.78;1.90;;;2.60;99.90;;;;;;5079168;28;20143;-67
2023/03/12 03:23:35;;;;;;;4.75;2.65;;;2.70;99.90;;;;;;5070034;28;20083;-67
2023/03/12 03:26:01;;;;;;;4.00;2.60;;;2.20;99.90;;;;;;5063623;28;20079;-68
2023/03/12 03:28:29;;;;;;;6.95;2.65;;;2.50;99.90;;;;;;5055388;28;20162;-68
2023/03/12 03:30:57;;;;;;;3.38;2.05;;;2.70;99.90;;;;;;5063487;28;20053;-67
2023/03/12 03:33:23;;;;;;;4.75;2.58;;;2.30;99.90;;;;;;5066330;28;20036;-70
2023/03/12 03:35:49;;;;;;;3.35;2.40;;;2.70;99.90;;;;;;5048316;28;20036;-69
2023/03/12 03:38:15;;;;;;;3.10;2.33;;;2.70;99.90;;;;;;5048903;28;20036;-69
2023/03/12 03:40:41;;;;;;;5.53;2.80;;;2.50;99.90;;;;;;5052464;28;20090;-69
2023/03/12 03:43:07;;;;;;;5.55;2.95;;;2.30;99.90;;;;;;5079799;28;20071;-69
2023/03/12 03:45:33;;;;;;;2.97;2.40;;;2.30;99.90;;;;;;5054852;28;20557;-69
2023/03/12 03:47:58;;;;;;;3.75;2.22;;;2.40;99.90;;;;;;5051884;28;20052;-70
2023/03/12 03:50:24;;;;;;;3.22;2.47;;;2.30;99.90;;;;;;5033787;28;20052;-69
2023/03/12 03:52:50;;;;;;;4.00;2.78;;;2.50;99.90;;;;;;5083779;28;20040;-69
2023/03/12 03:55:15;;;;;;;3.28;2.22;;;2.30;99.90;;;;;;5052334;28;20045;-69
2023/03/12 03:57:41;;;;;;;3.03;2.20;;;2.30;99.90;;;;;;5033013;28;20052;-70
2023/03/12 04:00:08;;;;;;;3.07;2.20;;;2.50;99.90;;;;;;5049409;28;20041;-70
2023/03/12 04:02:35;;;;;;;4.63;2.75;;;2.40;99.90;;;;;;5055491;28;20327;-70
2023/03/12 04:05:01;;;;;;;3.35;2.50;;;2.50;99.90;;;;;;5049294;28;20045;-70
2023/03/12 04:07:27;;;;;;;3.22;2.33;;;2.40;99.90;;;;;;5061072;28;20075;-70
2023/03/12 04:09:53;;;;;;;5.63;2.10;;;2.30;99.90;;;;;;5069295;28;20114;-70
2023/03/12 04:12:19;;;;;;;2.75;2.20;;;2.30;99.90;;;;;;5028898;28;20506;-72
2023/03/12 04:14:45;;;;;;;4.30;2.40;;;2.40;99.90;;;;;;5062733;28;20524;-73
2023/03/12 04:17:11;;;;;;;5.00;2.60;;;2.40;99.90;;;;;;5066472;28;20127;-73
2023/03/12 04:19:37;;;;;;;4.25;2.45;;;2.30;99.90;;;;;;5083854;28;20704;-73
2023/03/12 04:22:03;;;;;;;3.60;2.63;;;2.30;99.90;;;;;;5056524;28;20055;-70
2023/03/12 04:24:29;;;;;;;3.65;2.50;;;2.30;99.90;;;;;;5049164;28;20041;-70
2023/03/12 04:26:57;;;;;;;5.82;2.83;;;2.30;99.90;;;;;;5037191;28;20183;-70
2023/03/12 04:29:23;;;;;;;4.05;2.90;;;2.30;99.90;;;;;;5057913;28;20052;-70
2023/03/12 04:31:48;;;;;;;5.55;3.10;;;2.20;99.90;;;;;;5062782;28;20055;-70
2023/03/12 04:34:14;;;;;;;4.03;2.77;;;2.20;99.90;;;;;;5051889;28;20036;-69
2023/03/12 04:36:40;;;;;;;3.35;2.60;;;2.10;99.90;;;;;;5067552;28;20374;-69
2023/03/12 04:39:06;;;;;;;5.22;2.80;;;2.20;99.90;;;;;;5060893;28;20066;-69
2023/03/12 04:41:35;;;;;;;3.90;2.67;;;2.00;99.90;;;;;;5051107;28;20063;-69
2023/03/12 04:44:01;;;;;;;4.75;3.10;;;2.00;99.90;;;;;;5052202;28;20144;-69
2023/03/12 04:46:27;;;;;;;4.45;3.05;;;2.00;99.90;;;;;;5068743;28;20045;-70
2023/03/12 04:48:53;;;;;;;6.72;3.10;;;2.00;99.90;;;;;;5049917;28;20412;-70
2023/03/12 04:51:18;;;;;;;4.97;2.97;;;2.00;99.90;;;;;;5036958;28;20079;-69
2023/03/12 04:53:44;;;;;;;5.47;2.73;;;1.90;99.90;;;;;;5053859;28;20040;-69
2023/03/12 04:56:10;;;;;;;3.35;2.45;;;1.80;99.90;;;;;;5067526;28;20362;-70
2023/03/12 04:58:36;;;;;;;5.18;2.85;;;1.80;99.90;;;;;;5054121;28;20576;-70
2023/03/12 05:01:01;;;;;;;5.15;3.20;;;1.80;99.90;;;;;;5050192;28;20046;-70
2023/03/12 05:03:27;;;;;;;4.25;2.78;;;1.80;99.90;;;;;;5060932;28;20147;-69
2023/03/12 05:05:53;;;;;;;5.78;2.45;;;1.80;99.90;;;;;;5068786;28;20109;-70
2023/03/12 05:08:19;;;;;;;4.07;3.10;;;1.80;99.90;;;;;;5057688;28;20049;-70
2023/03/12 05:10:45;;;;;;;4.65;2.90;;;1.80;99.90;;;;;;5035542;28;20537;-70
2023/03/12 05:13:21;;;;;;;4.85;3.15;;;1.80;99.90;;;;;;5058895;28;20602;-70
2023/03/12 05:15:49;;;;;;;5.40;3.13;;;1.80;99.90;;;;;;5050202;28;20041;-69
2023/03/12 05:18:15;;;;;;;6.40;3.38;;;1.80;99.90;;;;;;5057673;28;20072;-70
2023/03/12 05:20:41;;;;;;;5.65;3.47;;;1.80;99.90;;;;;;5048970;28;20080;-69
2023/03/12 05:23:07;;;;;;;4.88;3.33;;;1.80;99.90;;;;;;5038216;28;20076;-69
2023/03/12 05:25:36;;;;;;;4.63;3.63;;;1.80;99.90;;;;;;5032016;28;20044;-70
2023/03/12 05:28:02;;;;;;;6.50;3.58;;;1.80;99.90;;;;;;5038182;28;20052;-69
2023/03/12 05:30:28;;;;;;;5.88;3.13;;;1.80;99.90;;;;;;5059556;28;20045;-69
2023/03/12 05:32:53;;;;;;;5.53;3.55;;;1.80;99.90;;;;;;5032684;28;20037;-69
2023/03/12 05:35:19;;;;;;;5.85;3.25;;;1.80;99.90;;;;;;5015314;28;20095;-69
2023/03/12 05:37:45;;;;;;;4.75;3.10;;;1.80;99.90;;;;;;5035744;28;20040;-70
2023/03/12 05:40:11;;;;;;;5.93;3.75;;;1.80;99.90;;;;;;5046947;28;20116;-70
2023/03/12 05:42:37;;;;;;;5.88;3.75;;;1.80;99.90;;;;;;5033649;28;20132;-69
2023/03/12 05:45:04;;;;;;;7.53;3.63;;;1.80;99.90;;;;;;5027737;28;20121;-70
2023/03/12 05:47:30;;;;;;;4.63;3.10;;;1.80;99.90;;;;;;5072728;28;20043;-70
2023/03/12 05:49:55;;;;;;;5.15;3.40;;;1.80;99.90;;;;;;5054070;28;20048;-70
2023/03/12 05:52:21;;;;;;;7.75;4.55;;;1.80;99.90;;;;;;5048300;28;20471;-69
2023/03/12 05:54:47;;;;;;;4.40;3.30;;;1.80;99.90;;;;;;5047702;28;20652;-70
2023/03/12 05:57:13;;;;;;;6.72;3.67;;;1.90;99.90;;;;;;5054954;28;20048;-70
2023/03/12 05:59:38;;;;;;;5.32;3.70;;;1.90;99.90;;;;;;5054599;28;20511;-69
2023/03/12 06:02:04;;;;;;;4.60;3.53;;;1.90;99.90;;;;;;5016206;28;20129;-70
2023/03/12 06:04:30;;;;;;;6.75;4.38;;;1.90;99.90;;;;;;5041063;28;20041;-69
2023/03/12 06:06:56;;;;;;;7.95;4.10;;;1.90;99.90;;;;;;5034743;28;20440;-69
2023/03/12 06:09:21;;;;;;;6.63;3.90;;;1.90;99.90;;;;;;5046402;28;20072;-69
2023/03/12 06:11:47;;;;;;;5.15;3.33;;;1.90;99.90;;;;;;5067649;28;20490;-70
2023/03/12 06:14:13;;;;;;;7.03;4.07;;;1.90;99.90;;;;;;5033603;28;20044;-69
2023/03/12 06:16:39;;;;;;;7.30;4.60;;;1.90;99.90;;;;;;5072690;28;20083;-70
2023/03/12 06:19:06;;;;;;;5.60;3.20;;;2.00;99.90;;;;;;5064179;28;20145;-69
2023/03/12 06:21:34;;;;;;;5.88;3.80;;;2.00;99.90;;;;;;5038983;28;20490;-69
2023/03/12 06:24:00;;;;;;;7.05;3.42;;;2.00;99.90;;;;;;5041441;28;20395;-70
2023/03/12 06:26:26;;;;;;;6.30;3.80;;;2.00;99.90;;;;;;5054886;28;20135;-70
2023/03/12 06:28:53;;;;;;;5.28;3.55;;;2.00;99.90;;;;;;5036805;28;20040;-70
2023/03/12 06:31:19;;;;;;;4.97;3.78;;;2.00;99.90;;;;;;5046334;28;20496;-69
2023/03/12 06:33:46;;;;;;;10.00;3.90;;;2.00;99.90;;;;;;5037795;28;20044;-70
2023/03/12 06:36:12;;;;;;;6.47;4.53;;;2.10;99.90;;;;;;5069325;28;20076;-70
2023/03/12 06:38:38;;;;;;;6.13;4.20;;;2.10;99.90;;;;;;5008901;28;20123;-69
2023/03/12 06:41:08;;;;;;;5.40;3.92;;;2.10;99.90;;;;;;5065139;28;20116;-69
2023/03/12 06:43:35;;;;;;;5.82;3.90;;;2.10;99.90;;;;;;5063783;28;20439;-69
2023/03/12 06:46:02;;;;;;;7.00;3.92;;;2.10;99.90;;;;;;5053184;28;20491;-69
2023/03/12 06:48:29;;;;;;;6.47;4.40;;;2.10;99.90;;;;;;5064802;28;20187;-71
2023/03/12 06:50:55;;;;;;;5.22;3.80;;;2.10;99.90;;;;;;5072535;28;20040;-70
2023/03/12 06:53:21;;;;;;;5.03;3.38;;;2.10;99.90;;;;;;5051041;28;20067;-71
2023/03/12 06:55:49;;;;;;;5.38;4.03;;;2.20;99.90;;;;;;5037059;28;20041;-67
2023/03/12 06:58:15;;;;;;;5.82;3.63;;;2.20;99.90;;;;;;5053510;28;20101;-71
2023/03/12 07:00:41;;;;;;;5.95;3.78;;;2.20;99.90;;;;;;5033152;28;20087;-71
2023/03/12 07:03:07;;;;;;;5.47;3.75;;;2.20;99.90;;;;;;5055567;28;20032;-70
2023/03/12 07:05:33;;;;;;;5.38;3.60;;;2.20;99.90;;;;;;5041683;28;20153;-68
2023/03/12 07:07:58;;;;;;;6.32;4.30;;;2.20;99.90;;;;;;5068826;28;20076;-69
2023/03/12 07:10:27;;;;;;;6.40;4.20;;;2.30;99.90;;;;;;5039445;28;20123;-71
2023/03/12 07:12:53;;;;;;;5.15;3.20;;;2.30;99.90;;;;;;5065675;28;20055;-75
2023/03/12 07:15:19;;;;;;;9.35;5.15;;;2.30;99.90;;;;;;5048940;28;20044;-75
2023/03/12 07:17:45;;;;;;;9.65;5.70;;;2.30;99.90;;;;;;5060668;28;20095;-74
2023/03/12 07:20:11;;;;;;;10.13;5.63;;;2.30;99.90;;;;;;5063749;28;20446;-75
2023/03/12 07:22:37;;;;;;;9.13;5.53;;;2.30;99.90;;;;;;5069147;28;20549;-75
2023/03/12 07:25:03;;;;;;;12.25;6.00;;;2.20;99.90;;;;;;5078352;28;20041;-75
2023/03/12 07:27:29;;;;;;;13.80;6.35;;;2.20;99.90;;;;;;5067027;28;20123;-76
2023/03/12 07:29:55;;;;;;;11.18;6.45;;;2.20;99.90;;;;;;5068248;28;20464;-73
2023/03/12 07:32:21;;;;;;;9.43;6.32;;;2.20;99.90;;;;;;5065362;28;20047;-73
2023/03/12 07:34:46;;;;;;;9.43;6.10;;;2.10;99.90;;;;;;5047709;28;20043;-73
2023/03/12 07:37:12;;;;;;;10.40;6.30;;;2.10;99.90;;;;;;5051553;28;20047;-73
2023/03/12 07:39:38;;;;;;;8.13;6.20;;;2.10;99.90;;;;;;5062908;28;20054;-73
2023/03/12 07:42:03;;;;;;;6.90;4.32;;;2.10;99.90;;;;;;5059057;28;20045;-73
2023/03/12 07:44:29;;;;;;;7.93;5.60;;;2.10;99.90;;;;;;5055780;28;20106;-72
2023/03/12 07:46:55;;;;;;;9.75;6.28;;;2.10;99.90;;;;;;5068381;28;20037;-73
2023/03/12 07:49:20;;;;;;;11.05;6.95;;;2.00;99.90;;;;;;5069951;28;20502;-72
2023/03/12 07:51:46;;;;;;;8.85;5.85;;;2.00;99.90;;;;;;5052416;28;20053;-72
2023/03/12 07:54:12;;;;;;;9.95;5.32;;;2.00;99.90;;;;;;5063123;28;20044;-73
2023/03/12 07:56:38;;;;;;;9.60;6.30;;;2.00;99.90;;;;;;5068291;28;20067;-74
2023/03/12 07:59:04;;;;;;;9.45;5.97;;;2.00;99.90;;;;;;5044364;28;20079;-73
2023/03/12 08:01:31;;;;;;;11.02;6.60;;;2.00;99.90;;;;;;5064153;28;20037;-73
2023/03/12 08:03:57;;;;;;;7.93;6.07;;;2.00;99.90;;;;;;5049223;28;20036;-74
2023/03/12 08:06:23;;;;;;;7.38;5.35;;;2.10;99.90;;;;;;5067988;28;20163;-74
2023/03/12 08:08:49;;;;;;;9.00;6.05;;;2.10;99.90;;;;;;5071068;28;20125;-73
2023/03/12 08:11:15;;;;;;;9.05;5.90;;;2.00;99.90;;;;;;5069474;28;20123;-73
2023/03/12 08:13:41;;;;;;;7.30;6.22;;;2.00;99.90;;;;;;5053531;28;20044;-74
2023/03/12 08:16:07;;;;;;;9.10;6.35;;;2.00;99.90;;;;;;5055496;28;20037;-75
2023/03/12 08:18:33;;;;;;;9.10;6.85;;;2.20;99.90;;;;;;5044859;28;20051;-74
2023/03/12 08:20:59;;;;;;;8.88;6.20;;;2.20;99.90;;;;;;5063002;28;20110;-75
2023/03/12 08:23:25;;;;;;;10.95;6.70;;;2.20;99.90;;;;;;5060134;28;20118;-75
2023/03/12 08:25:51;;;;;;;;;;;2.10;99.90;;;;;;5064081;28;20033;-75
2023/03/12 08:28:18;;;;;;;9.63;6.35;;;2.30;99.90;;;;;;5061354;28;19943;-75
2023/03/12 08:30:49;;;;;;;14.10;8.02;;;2.20;99.90;;;;;;5057627;28;20123;-75
2023/03/12 08:33:14;;;;;;;10.57;7.55;;;2.20;99.90;;;;;;5060317;28;20040;-74
2023/03/12 08:35:40;;;;;;;11.07;7.23;;;2.40;99.90;;;;;;5061869;28;20535;-75
2023/03/12 08:38:06;;;;;;;10.25;6.97;;;2.40;99.90;;;;;;5060919;28;20409;-74
2023/03/12 08:40:38;;;;;;;11.10;7.00;;;2.50;99.90;;;;;;5061648;28;20043;-74
2023/03/12 08:43:03;;;;;;;9.38;6.80;;;2.50;99.90;;;;;;5063303;28;20048;-74
2023/03/12 08:45:29;;;;;;;11.27;7.35;;;2.60;99.90;;;;;;5045323;28;20049;-74
2023/03/12 08:47:55;;;;;;;11.63;8.00;;;2.70;99.90;;;;;;5063456;28;20040;-74
2023/03/12 08:50:21;;;;;;;10.85;7.28;;;2.70;99.90;;;;;;5048318;28;20044;-74
2023/03/12 08:52:47;;;;;;;13.25;8.32;;;2.70;99.90;;;;;;5063489;28;20127;-74
2023/03/12 08:55:13;;;;;;;9.27;7.30;;;2.70;99.90;;;;;;5049332;28;20124;-74
2023/03/12 08:57:39;;;;;;;12.77;7.90;;;2.80;99.90;;;;;;5047456;28;20040;-75
2023/03/12 09:00:10;;;;;;;11.43;7.60;;;3.00;99.90;;;;;;5066952;28;20086;-74
2023/03/12 09:02:39;;;;;;;9.10;7.35;;;3.10;99.90;;;;;;5066476;28;20033;-74
2023/03/12 09:05:05;;;;;;;8.55;7.03;;;2.90;99.90;;;;;;5061916;28;20043;-75
2023/03/12 09:07:31;;;;;;;10.07;7.40;;;2.90;99.90;;;;;;5050632;28;20041;-74
2023/03/12 09:09:57;;;;;;;12.82;7.00;;;3.10;99.90;;;;;;5064180;28;20051;-75
2023/03/12 09:12:23;;;;;;;9.70;6.38;;;3.10;99.90;;;;;;5065013;28;20072;-77
2023/03/12 09:14:49;;;;;;;10.32;7.03;;;3.20;99.90;;;;;;5065621;28;20388;-76
2023/03/12 09:17:15;;;;;;;;;;;3.10;99.90;;;;;;5064660;28;20041;-76
2023/03/12 09:19:40;;;;;;;7.80;5.72;;;3.00;99.90;;;;;;5070683;28;19931;-76
2023/03/12 09:22:06;;;;;;;8.43;6.50;;;3.00;99.90;;;;;;5070957;28;20051;-76
2023/03/12 09:24:32;;;;;;;8.30;6.13;;;3.00;99.90;;;;;;5065356;28;20036;-75
2023/03/12 09:26:58;;;;;;;8.38;6.22;;;3.30;99.90;;;;;;5069676;28;20033;-75
2023/03/12 09:29:24;;;;;;;5.93;4.50;;;3.20;99.90;;;;;;5054231;28;20119;-76
2023/03/12 09:31:50;;;;;;;5.63;4.70;;;3.10;99.90;;;;;;5066937;28;20049;-76
2023/03/12 09:34:16;;;;;;;8.80;6.45;;;3.40;99.90;;;;;;5062200;28;20075;-76
2023/03/12 09:36:42;;;;;;;8.75;6.00;;;3.00;99.90;;;;;;5066602;28;20041;-76
2023/03/12 09:39:08;;;;;;;7.82;6.13;;;3.40;99.90;;;;;;5065311;28;20045;-76
2023/03/12 09:41:38;;;;;;;6.85;6.10;;;3.40;99.90;;;;;;5062744;28;20040;-75
2023/03/12 09:44:42;;;;;;;7.28;5.80;;;3.50;99.90;;;;;;5061649;28;20059;-76
2023/03/12 09:47:13;;;;;;;8.75;6.35;;;3.50;99.90;;;;;;5059869;28;20052;-75
2023/03/12 09:49:45;;;;;;;8.23;6.32;;;3.20;99.90;;;;;;5060685;28;20491;-74
2023/03/12 09:52:26;;;;;;;6.78;6.03;;;3.70;99.90;;;;;;5043010;28;20045;-74
2023/03/12 09:55:04;;;;;;;7.90;6.22;;;3.20;99.90;;;;;;5053200;28;20108;-74
2023/03/12 09:57:30;;;;;;;7.70;5.18;;;3.50;99.90;;;;;;5068674;28;20048;-73
2023/03/12 09:59:56;;;;;;;7.45;5.50;;;3.80;99.90;;;;;;5069769;28;20051;-73
2023/03/12 10:02:53;;;;;;;8.00;5.88;;;3.80;99.90;;;;;;5053896;28;20101;-73
2023/03/12 10:05:35;;;;;;;8.25;5.90;;;3.50;99.90;;;;;;5065269;28;20619;-75
2023/03/12 10:08:29;;;;;;;6.63;5.88;;;3.90;99.90;;;;;;5061999;28;20566;-75
2023/03/12 10:11:01;;;;;;;6.35;5.60;;;3.90;99.90;;;;;;5059279;28;20044;-73
2023/03/12 10:13:32;;;;;;;8.30;6.05;;;3.90;99.90;;;;;;5068076;28;20066;-74
2023/03/12 10:16:04;;;;;;;10.35;6.10;;;3.80;99.90;;;;;;5067401;28;20053;-74
2023/03/12 10:19:27;;;;;;;7.47;5.97;;;3.80;99.90;;;;;;5069781;28;20052;-73
2023/03/12 10:22:28;;;;;;;6.78;5.85;;;4.10;99.90;;;;;;4988372;28;20085;-75
2023/03/12 10:25:34;;;;;;;7.82;5.63;;;4.10;99.90;;;;;;4993425;28;20054;-75
2023/03/12 10:28:18;;;;;;;7.90;5.97;;;4.00;99.90;;;;;;5052135;28;20058;-74
2023/03/12 10:30:55;;;;;;;8.07;6.15;;;4.20;99.90;;;;;;5052224;28;20041;-75
2023/03/12 10:33:29;;;;;;;7.38;6.00;;;4.10;99.90;;;;;;5054832;28;20058;-73
2023/03/12 10:35:55;;;;;;;7.88;5.97;;;3.80;99.90;;;;;;5074111;28;20101;-74
2023/03/12 10:38:28;;;;;;;6.70;6.00;;;3.90;99.90;;;;;;5072663;28;20123;-73
2023/03/12 10:40:54;;;;;;;7.03;6.03;;;4.20;99.90;;;;;;5033440;28;20052;-73
2023/03/12 10:43:20;;;;;;;7.75;6.35;;;4.60;99.90;;;;;;5048713;28;20040;-69
2023/03/12 10:46:31;;;;;;;7.15;5.93;;;4.20;99.90;;;;;;5036868;28;20042;-68
2023/03/12 10:49:19;;;;;;;9.50;6.53;;;4.40;99.90;;;;;;5018054;28;20041;-69
2023/03/12 10:51:56;;;;;;;7.60;6.05;;;4.80;99.90;;;;;;5064074;28;20385;-70
2023/03/12 10:54:30;;;;;;;9.38;7.35;;;4.20;99.90;;;;;;5058501;28;20079;-70
2023/03/12 10:56:56;;;;;;;9.32;7.47;;;4.40;99.90;;;;;;5051594;28;20124;-69
2023/03/12 10:59:27;;;;;;;6.72;5.90;;;4.60;99.90;;;;;;5054160;28;20428;-70
2023/03/12 11:01:52;;;;;;;8.15;6.20;;;4.30;99.90;;;;;;5053158;28;20064;-70
2023/03/12 11:04:22;;;;;;;7.38;6.60;;;4.70;99.90;;;;;;5048577;28;20075;-69
2023/03/12 11:07:05;;;;;;;9.02;6.55;;;5.10;99.90;;;;;;5033089;28;20116;-69
2023/03/12 11:09:31;;;;;;;8.48;6.45;;;4.40;99.90;;;;;;5047282;28;20060;-68
2023/03/12 11:11:57;;;;;;;10.32;6.30;;;4.40;99.90;;;;;;5055993;28;20044;-68
2023/03/12 11:14:26;;;;;;;8.05;6.75;;;5.20;99.90;;;;;;5051882;28;20162;-68
2023/03/12 11:16:53;;;;;;;9.18;6.47;;;5.10;99.90;;;;;;5058271;28;20136;-70
2023/03/12 11:19:39;;;;;;;8.75;6.63;;;4.50;99.90;;;;;;5052675;28;20052;-67
2023/03/12 11:22:10;;;;;;;9.27;7.05;;;5.40;99.90;;;;;;5054292;28;20113;-68
2023/03/12 11:24:53;;;;;;;8.93;7.03;;;5.50;99.90;;;;;;5067040;28;20546;-69
2023/03/12 11:27:36;;;;;;;8.57;7.30;;;5.50;99.90;;;;;;5062798;28;20045;-68
2023/03/12 11:30:05;;;;;;;8.60;7.00;;;5.60;99.90;;;;;;5051464;28;20040;-68
2023/03/12 11:32:31;;;;;;;9.82;7.43;;;4.90;99.90;;;;;;5052836;28;20041;-69
2023/03/12 11:34:56;;;;;;;8.68;6.72;;;5.60;99.90;;;;;;5044949;28;20537;-68
2023/03/12 11:37:34;;;;;;;8.93;6.95;;;5.80;99.90;;;;;;5048008;28;20059;-75
2023/03/12 11:40:08;;;;;;;9.93;7.55;;;5.10;99.90;;;;;;5047998;28;20056;-75
2023/03/12 11:43:12;;;;;;;9.30;7.40;;;5.20;99.90;;;;;;5056591;28;20508;-76
2023/03/12 11:45:49;;;;;;;10.90;7.90;;;6.30;99.90;;;;;;5048843;28;20113;-76
2023/03/12 11:48:15;;;;;;;12.77;7.55;;;6.40;99.90;;;;;;5045455;28;20377;-75
2023/03/12 11:50:44;;;;;;;9.48;6.65;;;6.40;99.90;;;;;;5053435;28;20110;-77
2023/03/12 11:53:36;;;;;;;8.68;6.43;;;5.60;99.90;;;;;;5055693;28;20119;-75
2023/03/12 11:56:08;;;;;;;8.70;6.93;;;6.40;99.90;;;;;;5044296;28;20045;-76
2023/03/12 11:59:01;;;;;;;10.00;7.85;;;6.60;99.90;;;;;;5047382;28;20137;-75
2023/03/12 12:01:51;;;;;;;8.70;7.35;;;6.50;99.90;;;;;;5051200;28;20044;-75
2023/03/12 12:04:52;;;;;;;8.40;6.85;;;6.10;99.90;;;;;;5062843;28;20045;-74
2023/03/12 12:07:44;;;;;;;7.90;6.40;;;6.20;99.90;;;;;;5054409;28;20510;-74
2023/03/12 12:10:13;;;;;;;7.03;6.32;;;6.10;99.90;;;;;;5024296;28;20555;-74
2023/03/12 12:13:17;;;;;;;7.10;6.40;;;6.20;99.90;;;;;;5044091;28;20256;-75
2023/03/12 12:15:59;;;;;;;7.72;6.78;;;6.30;99.90;;;;;;5048277;28;20048;-76
2023/03/12 12:18:51;;;;;;;8.38;6.43;;;7.20;99.90;;;;;;5062295;28;20084;-76
2023/03/12 12:21:31;;;;;;;9.38;6.45;;;7.00;99.90;;;;;;5039445;28;20083;-76
2023/03/12 12:24:32;;;;;;;8.23;6.70;;;6.70;99.90;;;;;;5029192;28;20125;-76
2023/03/12 12:27:03;;;;;;;8.77;6.95;;;6.80;99.90;;;;;;4961624;28;20054;-75
2023/03/12 12:29:31;;;;;;;6.93;5.82;;;7.10;99.90;;;;;;5026300;28;20052;-74
2023/03/12 12:32:00;;;;;;;8.88;7.32;;;7.30;99.90;;;;;;5049343;28;20152;-75
2023/03/12 12:34:43;;;;;;;8.60;7.28;;;8.40;99.90;;;;;;5046775;28;20036;-76
2023/03/12 12:37:30;;;;;;;8.63;6.88;;;8.50;99.90;;;;;;5029534;28;20041;-77
2023/03/12 12:40:19;;;;;;;8.98;7.07;;;7.90;99.90;;;;;;5045225;28;20036;-75
2023/03/12 12:43:16;;;;;;;8.45;6.78;;;8.60;99.90;;;;;;5038320;28;20124;-76
2023/03/12 12:45:44;;;;;;;8.35;6.70;;;9.00;99.90;;;;;;5056757;28;20044;-77
2023/03/12 12:48:16;;;;;;;7.60;6.80;;;9.20;99.90;;;;;;5030871;28;20615;-75
2023/03/12 12:50:44;;;;;;;8.85;7.55;;;9.40;99.90;;;;;;5052536;28;20043;-76
2023/03/12 12:53:24;;;;;;;10.20;7.55;;;9.60;99.90;;;;;;5052080;28;20045;-76
2023/03/12 12:55:59;;;;;;;11.05;7.40;;;8.60;99.90;;;;;;5047483;28;20079;-77
2023/03/12 12:58:51;;;;;;;10.27;7.53;;;9.90;99.90;;;;;;5050611;28;20056;-77
2023/03/12 13:01:17;;;;;;;10.15;7.70;;;9.80;99.90;;;;;;5055348;28;20048;-78
2023/03/12 13:03:44;;;;;;;8.75;6.75;;;9.20;99.90;;;;;;5053627;28;20135;-77
2023/03/12 13:06:10;;;;;;;9.55;7.03;;;9.10;99.90;;;;;;5067866;28;20032;-76
2023/03/12 13:08:39;;;;;;;9.32;6.78;;;9.90;99.90;;;;;;5053159;28;20044;-76